Weather observations for the past three days for
Pinal Airpark
Imperial (Metric)
Date Time (mst) Wind (mph) Vis. (mi.) Weather Sky Cond. Temperature (ºF) Relative Humidity Wind Chill (°F) Heat Index (°F) Pressure Precipitation (in)
Air Dwpt 6 hour altimeter (in) sea level (mb) 1 hr 3 hr 6 hr
Max. Min.
05 05:55 SE 5 10.00 Fair CLR 77 66.2 69% 79 29.97 0.0
05 05:35 S 5 10.00 Fair CLR 77 66.2 69% 79 29.96 0.0
05 05:15 SE 3 10.00 Fair CLR 77 66.2 69% 79 29.96 0.0
05 04:55 Calm 10.00 Fair CLR 77 66.2 69% 79 29.96 0.0
05 04:35 Calm 10.00 A Few Clouds FEW033 FEW039 FEW045 77 66.2 69% 79 29.95 0.0
05 04:15 SE 5 10.00 Partly Cloudy FEW033 SCT042 77 66.2 69% 79 29.96 0.0
05 03:55 SE 3 10.00 Partly Cloudy FEW036 SCT045 SCT075 78.8 66.2 65% 81 29.95 0.0
05 03:30 Calm 10.00 A Few Clouds FEW043 78.8 64.4 61% 81 29.95 0.0
05 03:15 Calm 10.00 Fair CLR 78.8 64.4 61% 81 29.95 0.0
05 02:55 SE 5 10.00 Fair CLR 78.8 62.6 58% 80 29.95 0.0
05 02:35 SE 5 10.00 Fair CLR 78.8 62.6 58% 80 29.95 0.0
05 02:15 Calm 10.00 Fair CLR 78.8 64.4 61% 81 29.95 0.0
05 01:55 Calm 10.00 Fair CLR 80.6 64.4 58% 82 29.95 0.0
05 01:35 Calm 10.00 Fair CLR 80.6 64.4 58% 82 29.96 0.0
05 01:15 SE 7 10.00 Fair CLR 80.6 64.4 58% 82 29.96 0.0
05 00:55 SE 5 10.00 A Few Clouds FEW065 82.4 64.4 55% 84 29.96 0.0
05 00:35 E 5 10.00 A Few Clouds FEW065 82.4 64.4 55% 84 29.96 0.0
05 00:15 E 5 10.00 A Few Clouds FEW065 82.4 66.2 58% 85 29.96 0.0
04 23:55 E 5 10.00 A Few Clouds FEW060 82.4 66.2 58% 85 29.95 0.0
04 23:35 Calm 10.00 A Few Clouds FEW060 84.2 68 58% 87 29.95 0.0
04 23:15 Calm 10.00 A Few Clouds FEW060 84.2 66.2 55% 87 29.95 0.0
04 22:55 Calm 10.00 Mostly Cloudy BKN055 84.2 64.4 51% 86 29.95 0.0
04 22:35 Calm 10.00 Overcast BKN050 OVC060 84.2 64.4 51% 86 29.94 0.0
04 22:15 Calm 10.00 Mostly Cloudy BKN050 BKN055 86 62.6 46% 87 29.94 0.0
04 21:55 S 5 10.00 Mostly Cloudy BKN049 86 64.4 49% 87 29.94 0.0
04 21:35 S 5 10.00 Mostly Cloudy BKN047 86 64.4 49% 87 29.93 0.0
04 21:15 S 6 10.00 A Few Clouds FEW046 FEW060 87.8 62.6 43% 88 29.93 0.0
04 20:55 S 6 9.00 Fair CLR 87.8 62.6 43% 88 29.93 0.0
04 20:35 S 6 10.00 Fair CLR 89.6 60.8 38% 90 29.93 0.0
04 20:15 SW 6 10.00 Fair CLR 89.6 60.8 38% 90 29.91 0.0
04 19:55 S 6 10.00 A Few Clouds FEW110 91.4 60.8 36% 91 29.9 0.0
04 19:35 SW 3 10.00 Mostly Cloudy BKN110 91.4 60.8 36% 91 29.9 0.0
04 19:15 Calm 10.00 Partly Cloudy SCT120 91.4 60.8 36% 91 29.89 0.0
04 18:55 Calm 10.00 Mostly Cloudy SCT095 BKN120 93.2 57.2 30% 92 29.89 0.0
04 18:35 Calm 10.00 Mostly Cloudy BKN095 BKN120 95 59 30% 94 29.89 0.0
04 18:10 SW 5 10.00 A Few Clouds FEW095 FEW120 95 55.4 26% 93 29.88 0.0
04 17:55 SW 8 10.00 A Few Clouds FEW100 96.8 55.4 25% 95 29.88 0.0
04 17:35 W 6 10.00 Fair CLR 96.8 55.4 25% 95 29.88 0.0
04 17:15 W 8 10.00 Fair CLR 96.8 55.4 25% 95 29.88 0.0
04 16:50 SW 8 G 16 10.00 A Few Clouds FEW095 98.6 55.4 24% 97 29.88 0.0
04 16:35 W 9 10.00 Mostly Cloudy BKN090 98.6 55.4 24% 97 29.88 0.0
04 16:15 Calm 10.00 A Few Clouds FEW100 98.6 55.4 24% 97 29.88 0.0
04 15:50 SW 10 10.00 A Few Clouds FEW095 98.6 55.4 24% 97 29.89 0.0
04 15:35 S 9 10.00 Partly Cloudy SCT095 98.6 55.4 24% 97 29.89 0.0
04 15:15 Vrbl 7 10.00 Partly Cloudy SCT095 98.6 51.8 21% 96 29.89 0.0
04 14:50 Calm 10.00 Fair CLR 98.6 57.2 25% 98 29.9 0.0
04 14:35 Vrbl 6 G 14 10.00 Fair CLR 96.8 59 28% 96 29.91 0.0
04 14:15 SE 9 10.00 A Few Clouds FEW085 96.8 59 28% 96 29.91 0.0
04 13:50 SE 8 10.00 A Few Clouds FEW085 FEW120 95 59 30% 94 29.92 0.0
04 13:35 SE 6 10.00 A Few Clouds FEW120 95 60.8 32% 95 29.93 0.0
04 13:15 Vrbl 7 10.00 Fair CLR 96.8 57.2 27% 96 29.94 0.0
04 12:50 Calm 10.00 Fair CLR 95 62.6 34% 96 29.95 0.0
04 12:35 Calm 10.00 Fair CLR 93.2 62.6 36% 94 29.95 0.0
04 12:15 S 7 10.00 Fair CLR 93.2 62.6 36% 94 29.96 0.0
04 11:55 S 8 10.00 Fair CLR 93.2 64.4 39% 95 29.97 0.0
04 11:35 Calm 10.00 Fair CLR 91.4 64.4 41% 93 29.98 0.0
04 11:15 S 7 G 14 10.00 Fair CLR 91.4 64.4 41% 93 29.99 0.0
04 10:50 S 8 G 14 10.00 Fair CLR 91.4 66.2 44% 94 29.99 0.0
04 10:15 S 12 10.00 Fair CLR 89.6 66.2 46% 92 30 0.0
04 09:50 S 10 10.00 Fair CLR 87.8 68 52% 91 30 0.0
04 09:35 S 12 10.00 Fair CLR 87.8 68 52% 91 30 0.0
04 09:15 SE 10 G 17 10.00 Fair CLR 86 68 55% 89 29.99 0.0
04 08:50 S 10 10.00 Fair CLR 84.2 68 58% 87 29.99 0.0
04 08:35 SE 8 10.00 Fair CLR 84.2 68 58% 87 29.99 0.0
04 08:15 S 9 10.00 Fair CLR 82.4 69.8 66% 86 29.99 0.0
04 07:50 SE 8 10.00 Fair CLR 80.6 69.8 70% 84 29.99 0.0
04 07:35 SE 7 10.00 Fair CLR 80.6 69.8 70% 84 29.99 0.0
04 07:15 S 9 10.00 Fair CLR 78.8 69.8 74% 81 29.98 0.0
04 06:50 S 8 10.00 Fair CLR 77 69.8 79% 79 29.97 0.0
04 06:30 S 7 10.00 Fair CLR 77 69.8 79% 79 29.97 0.0
04 06:15 S 8 10.00 Fair CLR 77 69.8 79% 79 29.96 0.0
04 05:50 S 8 10.00 A Few Clouds FEW034 FEW042 77 69.8 79% 79 29.95 0.0
04 05:35 S 8 10.00 Partly Cloudy FEW026 SCT034 SCT042 77 69.8 79% 79 29.95 0.0
04 05:15 SE 6 10.00 Mostly Cloudy SCT032 SCT038 BKN044 78.8 68 70% 81 29.94 0.0
04 04:50 SE 8 10.00 Mostly Cloudy FEW027 SCT031 BKN040 78.8 68 70% 81 29.94 0.0
04 04:35 SE 8 10.00 Mostly Cloudy SCT028 SCT033 BKN039 78.8 68 70% 81 29.94 0.0
04 04:15 S 7 10.00 Mostly Cloudy FEW030 SCT040 BKN048 78.8 68 70% 81 29.94 0.0
04 03:50 SE 8 10.00 Mostly Cloudy FEW032 SCT041 BKN049 78.8 68 70% 81 29.93 0.0
04 03:35 SE 7 10.00 Partly Cloudy FEW041 SCT048 78.8 68 70% 81 29.93 0.0
04 03:15 S 10 10.00 A Few Clouds FEW040 FEW049 78.8 68 70% 81 29.93 0.0
04 02:50 SE 10 10.00 Mostly Cloudy SCT040 SCT048 BKN080 80.6 68 66% 83 29.92 0.0
04 02:35 S 12 G 17 10.00 Mostly Cloudy FEW036 SCT042 BKN080 80.6 68 66% 83 29.92 0.0
04 02:15 SE 9 10.00 Mostly Cloudy SCT035 SCT046 BKN080 80.6 68 66% 83 29.92 0.0
04 01:35 SE 10 G 17 10.00 Mostly Cloudy FEW038 BKN100 BKN120 82.4 68 62% 85 29.92 0.0
04 01:15 SE 9 G 15 10.00 Overcast FEW041 BKN090 OVC110 82.4 68 62% 85 29.92 0.0
04 00:50 SE 10 10.00 Overcast FEW041 SCT085 OVC110 82.4 68 62% 85 29.93 0.0
04 00:35 SE 9 10.00 Mostly Cloudy BKN095 BKN120 82.4 68 62% 85 29.93 0.0
04 00:15 SE 8 G 14 10.00 Mostly Cloudy FEW036 FEW042 BKN090 82.4 68 62% 85 29.93 0.0
03 23:55 SE 8 G 16 10.00 Mostly Cloudy FEW043 BKN090 82.4 66.2 58% 85 29.93 0.0
03 23:35 S 12 10.00 Mostly Cloudy FEW044 BKN085 82.4 66.2 58% 85 29.93 0.0
03 23:15 SE 8 10.00 Mostly Cloudy BKN085 82.4 68 62% 85 29.93 0.0
03 22:55 SE 8 10.00 Mostly Cloudy BKN090 82.4 68 62% 85 29.93 0.0
03 22:35 SE 8 10.00 Overcast FEW042 OVC090 84.2 68 58% 87 29.93 0.0
03 22:15 SE 9 10.00 Overcast FEW042 BKN080 OVC090 84.2 68 58% 87 29.93 0.0
03 21:55 SE 7 G 13 10.00 Overcast SCT080 OVC095 84.2 66.2 55% 87 29.93 0.0
03 21:35 SE 9 G 15 10.00 Overcast BKN080 OVC090 82.4 66.2 58% 85 29.93 0.0
03 21:15 SE 9 10.00 Overcast BKN075 OVC095 82.4 68 62% 85 29.92 0.0
03 20:55 SE 8 G 15 10.00 NULL NULL 82.4 68 62% 85 29.92 0.0 0.03
03 20:35 SE 10 G 16 3.00 Rain Haze NULL 82.4 69.8 66% 86 29.9 0.0
03 20:15 SE 10 10.00 Overcast BKN075 OVC090 86 66.2 52% 88 29.9 0.0
03 19:50 S 12 10.00 Overcast SCT080 OVC090 86 66.2 52% 88 29.89 0.0
03 19:15 SE 6 10.00 Partly Cloudy SCT085 86 68 55% 89 29.87 0.0
03 18:50 S 6 10.00 Fair CLR 87.8 66.2 49% 90 29.87 0.0
03 18:35 S 7 10.00 Fair CLR 87.8 66.2 49% 90 29.87 0.0
03 18:15 S 10 10.00 Fair CLR 89.6 66.2 46% 92 29.86 0.0
03 17:55 S 10 10.00 A Few Clouds FEW075 91.4 66.2 44% 94 29.86 0.0
03 17:35 SE 5 10.00 Fair CLR 93.2 62.6 36% 94 29.86 0.0
03 17:15 Calm 10.00 Fair CLR 93.2 62.6 36% 94 29.85 0.0
03 16:55 SE 5 10.00 Fair CLR 93.2 64.4 39% 95 29.86 0.0
03 16:35 E 3 10.00 Fair CLR 93.2 62.6 36% 94 29.87 0.0
03 16:15 NE 3 10.00 Fair CLR 95 62.6 34% 96 29.87 0.0
03 15:50 Calm 10.00 Fair CLR 95 62.6 34% 96 29.87 0.0
03 15:35 Calm 10.00 Fair CLR 95 62.6 34% 96 29.87 0.0
03 15:15 SE 5 10.00 Fair CLR 93.2 62.6 36% 94 29.88 0.0
03 14:50 Calm 10.00 NULL NULL 93.2 62.6 36% 94 29.89 0.0
03 14:35 E 5 G 12 10.00 Fair CLR 93.2 62.6 36% 94 29.89 0.0
03 14:15 Calm 10.00 Fair CLR 93.2 62.6 36% 94 29.9 0.0
03 13:50 Calm 10.00 NULL NULL 91.4 62.6 38% 92 29.92 0.0
03 13:35 S 7 10.00 NULL NULL 91.4 62.6 38% 92 29.92 0.0
03 13:15 Calm 10.00 NULL NULL 91.4 60.8 36% 91 29.93 0.0
03 12:50 Calm 10.00 NULL NULL 89.6 64.4 43% 91 29.95 0.0
03 12:35 Calm 10.00 NULL NULL 89.6 62.6 41% 90 29.95 0.0
03 12:15 SE 6 10.00 NULL NULL 89.6 64.4 43% 91 29.96 0.0
03 11:50 Calm 10.00 NULL NULL 87.8 64.4 46% 89 29.98 0.0
03 11:30 Calm 10.00 NULL NULL 87.8 64.4 46% 89 29.99 0.0
03 11:15 Vrbl 3 10.00 Fair CLR 87.8 66.2 49% 90 29.99 0.0
03 10:50 SE 6 10.00 Fair CLR 86 66.2 52% 88 30 0.0
03 10:35 SE 6 10.00 Fair CLR 86 68 55% 89 30.01 0.0
03 10:15 SE 6 10.00 A Few Clouds FEW100 84.2 69.8 62% 88 30.01 0.0
03 09:50 S 5 10.00 A Few Clouds FEW100 82.4 69.8 66% 86 30.01 0.0
03 09:30 S 6 10.00 A Few Clouds FEW120 80.6 71.6 74% 85 30.01 0.0
03 09:15 S 6 10.00 Partly Cloudy SCT120 78.8 69.8 74% 81 30.01 0.0
03 08:50 S 6 10.00 Partly Cloudy SCT110 77 69.8 79% 79 30.01 0.0
03 08:35 S 5 10.00 Partly Cloudy SCT100 77 69.8 79% 79 30.01 0.0
03 08:15 S 5 10.00 Mostly Cloudy BKN100 77 69.8 79% 79 30 0.0
03 07:50 Calm 10.00 Mostly Cloudy BKN095 75.2 69.8 83% 75 30 0.0
03 07:35 Calm 10.00 Overcast OVC095 75.2 69.8 83% 75 30 0.0
03 07:15 SE 3 10.00 Overcast BKN095 OVC120 75.2 69.8 83% 75 30 0.0
03 06:50 SE 3 10.00 Overcast BKN095 OVC120 75.2 69.8 83% 75 30 0.0
03 06:35 Calm 10.00 Overcast BKN095 OVC120 75.2 69.8 83% 75 30 0.0
03 06:15 E 8 10.00 Overcast SCT080 OVC100 75.2 69.8 83% 75 29.98 0.0
03 05:55 E 10 10.00 Light Rain FEW060 OVC080 75.2 69.8 83% 75 29.98 0.0
03 05:35 SE 7 10.00 Overcast OVC075 75.2 69.8 83% 75 29.98 0.0
03 05:15 S 5 10.00 Overcast OVC075 75.2 69.8 83% 75 29.98 0.0
03 04:35 E 5 8.00 Light Rain NULL 73.4 69.8 89% 29.97 0.0
03 04:15 SW 9 G 20 3.00 Heavy Rain Haze NULL 77 68 74% 79 29.97 0.0
03 03:50 S 6 10.00 Overcast OVC070 80.6 68 66% 83 29.95 0.0
03 03:35 SE 5 10.00 Overcast OVC075 80.6 68 66% 83 29.95 0.0
03 03:15 SE 5 10.00 Overcast FEW037 OVC080 80.6 68 66% 83 29.96 0.0
03 02:50 SE 5 10.00 Overcast OVC080 80.6 68 66% 83 29.96 0.0
03 02:15 SE 7 10.00 Partly Cloudy FEW032 FEW039 SCT075 80.6 69.8 70% 84 29.96 0.0
03 01:50 SE 6 10.00 Mostly Cloudy FEW031 BKN080 80.6 69.8 70% 84 29.96 0.0
03 01:35 SE 6 10.00 Mostly Cloudy FEW033 BKN080 80.6 69.8 70% 84 29.96 0.0
03 01:15 SE 6 10.00 Mostly Cloudy BKN033 82.4 69.8 66% 86 29.96 0.0
03 00:50 S 6 10.00 Partly Cloudy SCT033 80.6 69.8 70% 84 29.96 0.0
03 00:35 SE 5 10.00 Mostly Cloudy BKN034 BKN040 BKN060 82.4 69.8 66% 86 29.97 0.0
03 00:15 S 3 10.00 Mostly Cloudy SCT033 BKN039 BKN060 82.4 68 62% 85 29.97 0.0
02 23:55 S 7 10.00 Mostly Cloudy FEW027 SCT033 BKN060 82.4 68 62% 85 29.96 0.0
02 23:35 S 6 10.00 Mostly Cloudy FEW032 FEW040 BKN120 82.4 68 62% 85 29.96 0.0
02 23:10 SE 3 10.00 Partly Cloudy FEW033 FEW040 SCT055 84.2 68 58% 87 29.97 0.0
02 22:55 SE 6 10.00 Partly Cloudy FEW035 SCT041 SCT055 84.2 68 58% 87 29.97 0.0
02 22:35 S 9 10.00 Mostly Cloudy FEW036 FEW042 BKN085 84.2 68 58% 87 29.97 0.0
02 22:15 E 3 10.00 Mostly Cloudy FEW048 BKN090 BKN110 86 69.8 59% 91 29.97 0.0
02 21:55 Calm 10.00 Overcast FEW048 OVC090 86 69.8 59% 91 29.96 0.0
02 21:15 S 6 10.00 Overcast BKN090 OVC120 86 68 55% 89 29.95 0.0
02 20:50 S 6 10.00 Overcast FEW095 OVC120 84.2 69.8 62% 88 29.94 0.0
02 20:35 S 6 10.00 Mostly Cloudy BKN110 84.2 71.6 66% 90 29.94 0.0
02 20:15 S 5 10.00 Overcast OVC100 86 69.8 59% 91 29.93 0.0
02 19:55 S 7 10.00 Overcast SCT100 OVC120 86 69.8 59% 91 29.92 0.0
02 19:35 S 7 10.00 Mostly Cloudy BKN120 86 68 55% 89 29.92 0.0
02 19:15 S 5 10.00 Fair CLR 86 71.6 62% 92 29.91 0.0
02 18:55 S 5 10.00 Fair CLR 86 69.8 59% 91 29.91 0.0
02 18:35 S 6 10.00 Fair CLR 87.8 68 52% 91 29.91 0.0
02 18:15 S 6 10.00 A Few Clouds FEW120 89.6 69.8 52% 95 29.9 0.0
02 17:55 SE 5 10.00 Partly Cloudy SCT120 91.4 64.4 41% 93 29.9 0.0 0.03
02 17:15 SE 8 G 16 8.00 Light Rain FEW039 SCT055 SCT075 84.2 66.2 55% 87 29.91 0.0
02 16:50 SE 9 G 18 2.00 Light Rain Haze FEW037 SCT048 BKN080 86 68 55% 89 29.92 0.0
02 16:35 E 8 10.00 Mostly Cloudy SCT080 BKN120 93.2 62.6 36% 94 29.91 0.0
02 16:10 E 12 G 23 10.00 Mostly Cloudy BKN080 BKN120 93.2 62.6 36% 94 29.92 0.0
02 15:50 Calm 10.00 Partly Cloudy SCT080 SCT120 96.8 60.8 30% 97 29.92 0.0
02 15:35 SW 3 10.00 Partly Cloudy SCT080 95 60.8 32% 95 29.93 0.0
02 15:15 Vrbl 6 10.00 Partly Cloudy SCT080 96.8 60.8 30% 97 29.93 0.0
02 14:50 NW 6 G 13 10.00 Partly Cloudy SCT080 96.8 62.6 32% 98 29.94 0.0
02 14:35 W 7 10.00 A Few Clouds FEW070 96.8 60.8 30% 97 29.94 0.0
02 14:15 NW 6 10.00 Partly Cloudy SCT070 95 62.6 34% 96 29.95 0.0
02 13:50 Calm 10.00 Partly Cloudy SCT065 95 64.4 36% 97 29.96 0.0
02 13:35 Vrbl 5 10.00 Partly Cloudy SCT065 SCT075 SCT085 95 64.4 36% 97 29.96 0.0
02 13:10 Calm 10.00 Partly Cloudy FEW065 SCT070 93.2 64.4 39% 95 29.98 0.0
02 12:50 N 6 10.00 Fair CLR 95 64.4 36% 97 29.99 0.0
02 12:35 Calm 10.00 Fair CLR 95 64.4 36% 97 30 0.0
02 12:10 Calm 10.00 Fair CLR 93.2 66.2 41% 96 30.01 0.0
02 11:55 Vrbl 6 10.00 Fair CLR 93.2 66.2 41% 96 30.02 0.0
02 11:35 NW 7 10.00 A Few Clouds FEW050 91.4 68 46% 96 30.03 0.0
02 11:15 Calm 10.00 Fair CLR 93.2 68 44% 98 30.04 0.0
02 10:50 NW 3 10.00 Fair CLR 91.4 68 46% 96 30.04 0.0
02 10:35 Calm 10.00 Fair CLR 89.6 68 49% 93 30.04 0.0
02 09:50 Calm 10.00 Fair CLR 87.8 68 52% 91 30.05 0.0
02 09:35 Vrbl 3 10.00 Fair CLR 87.8 68 52% 91 30.05 0.0
02 09:10 E 5 10.00 Fair CLR 86 69.8 59% 91 30.05 0.0
02 08:50 Vrbl 6 10.00 Fair CLR 84.2 69.8 62% 88 30.04 0.0
02 08:35 SE 7 10.00 Fair CLR 82.4 69.8 66% 86 30.04 0.0
02 08:10 S 7 10.00 Fair CLR 80.6 69.8 70% 84 30.04 0.0
02 07:50 S 5 10.00 Fair CLR 80.6 69.8 70% 84 30.04 0.0
02 07:35 SE 6 10.00 Fair CLR 80.6 68 66% 83 30.03 0.0
02 07:10 SE 6 10.00 Fair CLR 78.8 68 70% 81 30.03 0.0
02 06:50 SE 8 10.00 Fair CLR 78.8 68 70% 81 30.03 0.0
02 06:35 SE 7 10.00 Fair CLR 77 69.8 79% 79 30.02 0.0
02 06:10 SE 5 10.00 Fair CLR 77 68 74% 79 30.02 0.0
Date Time (mst) Wind (mph) Vis. (mi.) Weather Sky Cond. Air Dwpt Max. Min. Relative Humidity Wind Chill (°F) Heat Index (°F) altimeter (in) sea level (mb) 1 hr 3 hr 6 hr
6 hour
Temperature (ºF) Pressure Precipitation (in)